Terminal Aerodrome Forecast
Issued by NWS

Home | Current Version | Previous Version | Text Only | Print | Product List | Glossary On
Versions: 1 2 3 4 5 6 7 8 9 10 11 12
278
FTUS44 KLIX 281741
TAFGPT
TAF
KGPT 281741Z 2818/2918 25004KT P6SM VCSH FEW029 BKN070 OVC110
     FM281900 15009KT P6SM SCT030 SCT080 BKN200
     FM290300 15007KT P6SM VCTS SCT020CB OVC070
     FM291100 15006KT P6SM -SHRA VCTS SCT030CB OVC060=

USA.gov is the U.S. government's official web portal to all federal, state and local government web resources and services.